Time,TemperatureF,DewpointF,PressureIn,WindDirection,WindDirectionDegrees,WindSpeedMPH,WindSpeedGustMPH,Humidity,HourlyPrecipIn,Conditions,Clouds,dailyrainin,SolarRadiationWatts/m^2,SoftwareType,DateUTC
2013-08-22 00:02:00,66.4,63.4,29.85,SW,219,6.0,6.0,90,0.21,,,0.00,0,Wunderground v.1.15,2013-08-22 05:02:00,
2013-08-22 00:08:00,66.3,63.3,29.87,SW,223,6.0,13.0,90,0.76,,,0.03,0,Wunderground v.1.15,2013-08-22 05:08:00,
2013-08-22 00:13:00,66.3,63.3,29.85,NNW,342,5.0,8.0,90,3.97,,,0.19,0,Wunderground v.1.15,2013-08-22 05:13:00,
2013-08-22 00:18:00,66.3,63.3,29.83,East,100,9.0,9.0,90,0.51,,,0.34,0,Wunderground v.1.15,2013-08-22 05:18:00,
2013-08-22 00:23:00,66.3,63.3,29.83,ESE,123,10.0,10.0,90,0.20,,,0.35,0,Wunderground v.1.15,2013-08-22 05:23:00,
2013-08-22 00:28:00,66.4,63.4,29.82,ENE,67,10.0,10.0,90,0.10,,,0.36,0,Wunderground v.1.15,2013-08-22 05:28:00,
2013-08-22 00:34:00,66.6,63.6,29.81,ESE,103,12.0,15.0,90,0.13,,,0.37,0,Wunderground v.1.15,2013-08-22 05:34:00,
2013-08-22 00:39:00,66.6,63.6,29.81,ESE,105,12.0,15.0,90,0.06,,,0.37,0,Wunderground v.1.15,2013-08-22 05:39:00,
2013-08-22 00:44:00,66.7,63.7,29.82,SE,135,9.0,11.0,90,0.06,,,0.38,0,Wunderground v.1.15,2013-08-22 05:44:00,
2013-08-22 00:49:00,66.9,63.9,29.82,ESE,115,10.0,11.0,90,0.09,,,0.39,0,Wunderground v.1.15,2013-08-22 05:49:00,
2013-08-22 00:54:00,67.1,64.1,29.81,ESE,109,11.0,11.0,90,0.08,,,0.39,0,Wunderground v.1.15,2013-08-22 05:54:00,
2013-08-22 01:00:00,67.2,64.2,29.83,East,98,0.0,5.0,90,0.06,,,0.40,0,Wunderground v.1.15,2013-08-22 06:00:00,
2013-08-22 01:05:00,67.3,64.3,29.84,WNW,288,3.0,5.0,90,0.11,,,0.41,0,Wunderground v.1.15,2013-08-22 06:05:00,
2013-08-22 01:10:00,67.2,64.2,29.82,WNW,290,5.0,5.0,90,0.10,,,0.42,0,Wunderground v.1.15,2013-08-22 06:10:00,
2013-08-22 01:15:00,67.0,64.0,29.82,NE,39,1.0,5.0,90,0.24,,,0.44,0,Wunderground v.1.15,2013-08-22 06:15:00,
2013-08-22 01:20:00,67.0,64.0,29.83,SW,235,3.0,3.0,90,2.91,,,0.52,0,Wunderground v.1.15,2013-08-22 06:20:00,
2013-08-22 01:26:00,66.7,63.7,29.84,SSE,168,2.0,11.0,90,0.70,,,0.65,0,Wunderground v.1.15,2013-08-22 06:26:00,
2013-08-22 01:31:00,66.8,63.8,29.84,SW,217,12.0,16.0,90,0.26,,,0.67,0,Wunderground v.1.15,2013-08-22 06:31:00,
2013-08-22 01:36:00,66.7,63.7,29.85,SSW,205,10.0,16.0,90,0.15,,,0.69,0,Wunderground v.1.15,2013-08-22 06:36:00,
2013-08-22 01:41:00,66.8,63.8,29.85,South,178,13.0,18.0,90,0.16,,,0.70,0,Wunderground v.1.15,2013-08-22 06:41:00,
2013-08-22 01:46:00,66.8,63.8,29.85,South,183,14.0,20.0,90,0.14,,,0.71,0,Wunderground v.1.15,2013-08-22 06:46:00,
2013-08-22 01:52:00,66.7,63.7,29.83,South,179,9.0,16.0,90,0.07,,,0.71,0,Wunderground v.1.15,2013-08-22 06:52:00,
2013-08-22 01:57:00,66.6,63.6,29.82,South,176,19.0,19.0,90,0.05,,,0.72,0,Wunderground v.1.15,2013-08-22 06:57:00,
2013-08-22 02:02:00,66.6,63.6,29.80,SE,144,17.0,17.0,90,0.05,,,0.72,0,Wunderground v.1.15,2013-08-22 07:02:00,
2013-08-22 02:07:00,66.5,63.5,29.79,SSE,153,15.0,21.0,90,0.08,,,0.73,0,Wunderground v.1.15,2013-08-22 07:07:00,
2013-08-22 02:12:00,66.5,63.5,29.77,SE,130,10.0,20.0,90,0.06,,,0.73,0,Wunderground v.1.15,2013-08-22 07:12:00,
2013-08-22 02:17:00,66.6,63.6,29.76,ESE,107,17.0,21.0,90,0.06,,,0.74,0,Wunderground v.1.15,2013-08-22 07:17:00,
2013-08-22 02:22:00,66.8,63.8,29.76,East,94,19.0,24.0,90,0.06,,,0.74,0,Wunderground v.1.15,2013-08-22 07:22:00,
2013-08-22 02:27:00,66.9,63.9,29.76,NE,55,10.0,24.0,90,0.05,,,0.75,0,Wunderground v.1.15,2013-08-22 07:27:00,
2013-08-22 02:32:00,66.9,63.9,29.75,ENE,57,10.0,17.0,90,0.05,,,0.75,0,Wunderground v.1.15,2013-08-22 07:32:00,
2013-08-22 02:37:00,67.0,64.0,29.75,East,94,16.0,24.0,90,0.04,,,0.75,0,Wunderground v.1.15,2013-08-22 07:37:00,
2013-08-22 02:42:00,67.1,64.1,29.75,East,84,20.0,26.0,90,0.00,,,0.75,0,Wunderground v.1.15,2013-08-22 07:42:00,
2013-08-22 02:47:00,67.1,64.1,29.75,East,83,20.0,26.0,90,0.00,,,0.75,0,Wunderground v.1.15,2013-08-22 07:47:00,
2013-08-22 02:52:00,67.1,64.1,29.75,ESE,108,11.0,16.0,90,0.00,,,0.75,0,Wunderground v.1.15,2013-08-22 07:52:00,
2013-08-22 02:57:00,67.1,64.1,29.76,SSE,160,11.0,16.0,90,0.00,,,0.75,0,Wunderground v.1.15,2013-08-22 07:57:00,
2013-08-22 03:02:00,67.2,64.2,29.77,South,169,12.0,12.0,90,0.00,,,0.75,0,Wunderground v.1.15,2013-08-22 08:02:00,
2013-08-22 03:07:00,67.1,64.1,29.77,South,173,8.0,16.0,90,0.00,,,0.75,0,Wunderground v.1.15,2013-08-22 08:07:00,
2013-08-22 03:13:00,67.0,64.0,29.77,South,190,10.0,13.0,90,0.00,,,0.75,0,Wunderground v.1.15,2013-08-22 08:13:00,
2013-08-22 03:18:00,66.9,63.9,29.78,South,178,6.0,15.0,90,0.00,,,0.75,0,Wunderground v.1.15,2013-08-22 08:18:00,
2013-08-22 03:23:00,66.8,63.8,29.78,SSE,163,11.0,13.0,90,0.00,,,0.75,0,Wunderground v.1.15,2013-08-22 08:23:00,
2013-08-22 03:28:00,66.9,63.9,29.79,South,174,12.0,19.0,90,0.00,,,0.75,0,Wunderground v.1.15,2013-08-22 08:28:00,
2013-08-22 03:33:00,66.8,63.8,29.79,South,191,20.0,22.0,90,0.00,,,0.75,0,Wunderground v.1.15,2013-08-22 08:33:00,
2013-08-22 03:38:00,66.7,63.7,29.80,South,174,12.0,22.0,90,0.00,,,0.75,0,Wunderground v.1.15,2013-08-22 08:38:00,
2013-08-22 03:43:00,66.7,63.7,29.80,SSE,168,13.0,20.0,90,0.00,,,0.75,0,Wunderground v.1.15,2013-08-22 08:43:00,
2013-08-22 03:48:00,66.6,63.6,29.81,South,182,12.0,25.0,90,0.00,,,0.75,0,Wunderground v.1.15,2013-08-22 08:48:00,
2013-08-22 03:53:00,66.6,63.6,29.81,SSE,168,17.0,18.0,90,0.00,,,0.75,0,Wunderground v.1.15,2013-08-22 08:53:00,
2013-08-22 03:58:00,66.7,63.7,29.81,South,180,13.0,23.0,90,0.00,,,0.75,0,Wunderground v.1.15,2013-08-22 08:58:00,
2013-08-22 04:03:00,66.8,63.8,29.81,South,182,12.0,20.0,90,0.00,,,0.75,0,Wunderground v.1.15,2013-08-22 09:03:00,
2013-08-22 04:08:00,66.8,63.8,29.80,SSE,158,16.0,20.0,90,0.00,,,0.75,0,Wunderground v.1.15,2013-08-22 09:08:00,
2013-08-22 04:13:00,66.8,63.8,29.81,South,171,15.0,19.0,90,0.00,,,0.75,0,Wunderground v.1.15,2013-08-22 09:13:00,
2013-08-22 04:18:00,66.7,63.7,29.81,South,190,9.0,20.0,90,0.00,,,0.75,0,Wunderground v.1.15,2013-08-22 09:18:00,
2013-08-22 04:23:00,66.7,63.7,29.80,SSE,161,11.0,13.0,90,0.00,,,0.75,0,Wunderground v.1.15,2013-08-22 09:23:00,
2013-08-22 04:28:00,66.6,63.6,29.80,SSE,161,9.0,15.0,90,0.00,,,0.75,0,Wunderground v.1.15,2013-08-22 09:28:00,
2013-08-22 04:33:00,66.6,63.6,29.80,South,175,11.0,15.0,90,0.00,,,0.75,0,Wunderground v.1.15,2013-08-22 09:33:00,
2013-08-22 04:38:00,66.6,63.6,29.79,SSE,163,9.0,15.0,90,0.00,,,0.75,0,Wunderground v.1.15,2013-08-22 09:38:00,
2013-08-22 04:43:00,66.6,63.6,29.79,SSE,157,7.0,13.0,90,0.00,,,0.75,0,Wunderground v.1.15,2013-08-22 09:43:00,
2013-08-22 04:48:00,66.6,63.6,29.79,SSE,159,7.0,13.0,90,0.00,,,0.75,0,Wunderground v.1.15,2013-08-22 09:48:00,
2013-08-22 04:53:00,66.6,63.3,29.80,SSE,161,5.0,8.0,89,0.00,,,0.75,0,Wunderground v.1.15,2013-08-22 09:53:00,
2013-08-22 04:58:00,66.6,63.3,29.80,SSE,162,5.0,8.0,89,0.00,,,0.75,0,Wunderground v.1.15,2013-08-22 09:58:00,
2013-08-22 05:03:00,66.7,63.4,29.80,South,172,7.0,9.0,89,0.00,,,0.75,0,Wunderground v.1.15,2013-08-22 10:03:00,
2013-08-22 05:08:00,66.8,63.5,29.81,South,182,12.0,12.0,89,0.00,,,0.75,0,Wunderground v.1.15,2013-08-22 10:08:00,
2013-08-22 05:13:00,66.9,63.6,29.81,South,170,7.0,11.0,89,0.00,,,0.75,0,Wunderground v.1.15,2013-08-22 10:13:00,
2013-08-22 05:18:00,67.0,63.6,29.81,South,173,7.0,11.0,89,0.00,,,0.75,0,Wunderground v.1.15,2013-08-22 10:18:00,
2013-08-22 05:23:00,67.2,63.8,29.81,South,182,4.0,11.0,89,0.00,,,0.75,0,Wunderground v.1.15,2013-08-22 10:23:00,
2013-08-22 05:28:00,67.2,63.8,29.81,South,176,6.0,11.0,89,0.00,,,0.75,0,Wunderground v.1.15,2013-08-22 10:28:00,
2013-08-22 05:33:00,67.4,64.0,29.81,South,185,6.0,8.0,89,0.00,,,0.75,0,Wunderground v.1.15,2013-08-22 10:33:00,
2013-08-22 05:38:00,67.5,64.1,29.81,South,185,3.0,8.0,89,0.00,,,0.75,0,Wunderground v.1.15,2013-08-22 10:38:00,
2013-08-22 05:43:00,67.5,64.1,29.82,South,185,1.0,6.0,89,0.00,,,0.75,0,Wunderground v.1.15,2013-08-22 10:43:00,
2013-08-22 05:48:00,67.6,64.2,29.82,South,185,0.0,6.0,89,0.00,,,0.75,0,Wunderground v.1.15,2013-08-22 10:48:00,
2013-08-22 07:27:00,66.1,63.1,29.83,South,185,4.0,4.0,90,0.00,,,0.75,26,Wunderground v.1.15,2013-08-22 12:27:00,
2013-08-22 07:32:00,66.1,63.1,29.83,South,185,3.0,3.0,90,0.00,,,0.75,33,Wunderground v.1.15,2013-08-22 12:32:00,
2013-08-22 07:37:00,66.1,63.1,29.83,South,185,2.0,5.0,90,0.00,,,0.75,39,Wunderground v.1.15,2013-08-22 12:37:00,
2013-08-22 07:42:00,66.1,63.1,29.83,South,185,3.0,4.0,90,0.00,,,0.75,54,Wunderground v.1.15,2013-08-22 12:42:00,
2013-08-22 07:47:00,66.2,63.2,29.83,South,185,4.0,5.0,90,0.00,,,0.75,65,Wunderground v.1.15,2013-08-22 12:47:00,
2013-08-22 07:52:00,66.4,63.4,29.83,South,185,1.0,3.0,90,0.00,,,0.75,79,Wunderground v.1.15,2013-08-22 12:52:00,
2013-08-22 07:57:00,66.6,63.6,29.83,South,185,0.0,3.0,90,0.00,,,0.75,107,Wunderground v.1.15,2013-08-22 12:57:00,
2013-08-22 08:00:00,66.8,63.8,29.83,South,185,0.0,1.0,90,0.00,,,0.75,114,Wunderground v.1.15,2013-08-22 13:00:00,
2013-08-22 08:05:00,67.2,64.2,29.84,South,185,0.0,3.0,90,0.00,,,0.75,141,Wunderground v.1.15,2013-08-22 13:05:00,
2013-08-22 08:10:00,67.6,64.6,29.84,South,185,0.0,1.0,90,0.00,,,0.75,176,Wunderground v.1.15,2013-08-22 13:10:00,
2013-08-22 08:15:00,68.2,65.2,29.84,South,185,0.0,3.0,90,0.00,,,0.75,200,Wunderground v.1.15,2013-08-22 13:15:00,
2013-08-22 08:20:00,68.6,65.5,29.84,South,185,3.0,3.0,90,0.00,,,0.75,195,Wunderground v.1.15,2013-08-22 13:20:00,
2013-08-22 08:25:00,68.7,65.6,29.84,NW,306,6.0,6.0,90,0.00,,,0.75,232,Wunderground v.1.15,2013-08-22 13:25:00,
2013-08-22 08:30:00,69.0,65.9,29.84,NNW,333,3.0,3.0,90,0.00,,,0.75,244,Wunderground v.1.15,2013-08-22 13:30:00,
2013-08-22 08:35:00,69.5,66.4,29.84,NNW,344,3.0,7.0,90,0.00,,,0.75,251,Wunderground v.1.15,2013-08-22 13:35:00,
2013-08-22 08:40:00,69.8,66.7,29.83,NNW,344,6.0,6.0,90,0.00,,,0.75,260,Wunderground v.1.15,2013-08-22 13:40:00,
2013-08-22 08:45:00,70.0,66.9,29.83,NNW,343,5.0,7.0,90,0.00,,,0.75,276,Wunderground v.1.15,2013-08-22 13:45:00,
2013-08-22 08:50:00,70.2,66.8,29.83,NNW,343,0.0,4.0,89,0.00,,,0.75,290,Wunderground v.1.15,2013-08-22 13:50:00,
2013-08-22 08:55:00,70.6,67.2,29.83,NNW,343,0.0,6.0,89,0.00,,,0.75,304,Wunderground v.1.15,2013-08-22 13:55:00,
2013-08-22 09:00:00,71.3,67.9,29.83,NNW,343,0.0,3.0,89,0.00,,,0.75,322,Wunderground v.1.15,2013-08-22 14:00:00,
2013-08-22 09:05:00,71.3,67.9,29.84,NNW,343,2.0,5.0,89,0.00,,,0.75,336,Wunderground v.1.15,2013-08-22 14:05:00,
2013-08-22 09:10:00,71.5,67.8,29.84,NNW,343,2.0,5.0,88,0.00,,,0.75,348,Wunderground v.1.15,2013-08-22 14:10:00,
2013-08-22 09:15:00,71.5,67.4,29.84,NNW,343,0.0,5.0,87,0.00,,,0.75,362,Wunderground v.1.15,2013-08-22 14:15:00,
2013-08-22 09:20:00,71.7,67.6,29.84,NNW,343,0.0,2.0,87,0.00,,,0.75,380,Wunderground v.1.15,2013-08-22 14:20:00,
2013-08-22 09:25:00,71.9,67.8,29.84,NNW,343,2.0,4.0,87,0.00,,,0.75,394,Wunderground v.1.15,2013-08-22 14:25:00,
2013-08-22 09:30:00,72.3,67.9,29.84,NNW,342,4.0,5.0,86,0.00,,,0.75,408,Wunderground v.1.15,2013-08-22 14:30:00,
2013-08-22 09:35:00,72.7,68.3,29.84,NNW,338,0.0,6.0,86,0.00,,,0.75,425,Wunderground v.1.15,2013-08-22 14:35:00,
2013-08-22 09:40:00,73.4,69.3,29.84,NNW,333,5.0,7.0,87,0.00,,,0.75,441,Wunderground v.1.15,2013-08-22 14:40:00,
2013-08-22 09:45:00,73.5,68.7,29.84,NNW,329,4.0,7.0,85,0.00,,,0.75,454,Wunderground v.1.15,2013-08-22 14:45:00,
2013-08-22 09:50:00,73.7,68.6,29.84,NNW,327,4.0,5.0,84,0.00,,,0.75,469,Wunderground v.1.15,2013-08-22 14:50:00,
2013-08-22 09:55:00,73.9,68.8,29.84,WNW,300,3.0,9.0,84,0.00,,,0.75,482,Wunderground v.1.15,2013-08-22 14:55:00,
2013-08-22 10:00:00,74.1,69.0,29.85,NW,325,2.0,4.0,84,0.00,,,0.75,499,Wunderground v.1.15,2013-08-22 15:00:00,
2013-08-22 10:05:00,74.1,68.6,29.84,NW,322,2.0,6.0,83,0.00,,,0.75,513,Wunderground v.1.15,2013-08-22 15:05:00,
2013-08-22 10:10:00,74.1,69.0,29.85,NW,321,4.0,5.0,84,0.00,,,0.75,526,Wunderground v.1.15,2013-08-22 15:10:00,
2013-08-22 10:15:00,74.5,69.3,29.85,NW,321,3.0,5.0,84,0.00,,,0.75,541,Wunderground v.1.15,2013-08-22 15:15:00,
2013-08-22 10:20:00,74.6,69.1,29.85,NW,310,2.0,5.0,83,0.00,,,0.75,557,Wunderground v.1.15,2013-08-22 15:20:00,
2013-08-22 10:26:00,74.9,69.4,29.85,NW,311,2.0,8.0,83,0.00,,,0.75,573,Wunderground v.1.15,2013-08-22 15:26:00,
2013-08-22 10:31:00,75.3,69.8,29.85,NW,321,7.0,7.0,83,0.00,,,0.75,584,Wunderground v.1.15,2013-08-22 15:31:00,
2013-08-22 10:36:00,75.3,69.4,29.85,NNW,329,6.0,9.0,82,0.00,,,0.75,596,Wunderground v.1.15,2013-08-22 15:36:00,
2013-08-22 10:41:00,75.8,69.9,29.85,North,355,5.0,10.0,82,0.00,,,0.75,613,Wunderground v.1.15,2013-08-22 15:41:00,
2013-08-22 10:46:00,76.2,70.3,29.86,North,355,2.0,10.0,82,0.00,,,0.75,596,Wunderground v.1.15,2013-08-22 15:46:00,
2013-08-22 10:51:00,76.3,70.0,29.86,North,351,6.0,7.0,81,0.00,,,0.75,643,Wunderground v.1.15,2013-08-22 15:51:00,
2013-08-22 10:56:00,76.5,70.2,29.86,NNW,343,4.0,7.0,81,0.00,,,0.75,338,Wunderground v.1.15,2013-08-22 15:56:00,
2013-08-22 11:01:00,76.3,69.7,29.86,North,355,5.0,7.0,80,0.00,,,0.75,392,Wunderground v.1.15,2013-08-22 16:01:00,
2013-08-22 11:06:00,76.4,70.1,29.86,North,11,3.0,7.0,81,0.00,,,0.75,654,Wunderground v.1.15,2013-08-22 16:06:00,
2013-08-22 11:11:00,76.7,70.1,29.86,North,10,2.0,5.0,80,0.00,,,0.75,322,Wunderground v.1.15,2013-08-22 16:11:00,
2013-08-22 11:16:00,76.8,70.2,29.87,North,10,3.0,7.0,80,0.00,,,0.75,392,Wunderground v.1.15,2013-08-22 16:16:00,
2013-08-22 11:21:00,76.8,70.2,29.87,NNE,12,5.0,6.0,80,0.00,,,0.75,373,Wunderground v.1.15,2013-08-22 16:21:00,
2013-08-22 11:26:00,76.6,70.3,29.87,NNE,23,2.0,8.0,81,0.00,,,0.75,494,Wunderground v.1.15,2013-08-22 16:26:00,
2013-08-22 11:31:00,76.6,70.0,29.88,NE,35,4.0,6.0,80,0.00,,,0.75,919,Wunderground v.1.15,2013-08-22 16:31:00,
2013-08-22 11:36:00,76.7,69.7,29.88,NNE,15,3.0,7.0,79,0.00,,,0.75,302,Wunderground v.1.15,2013-08-22 16:36:00,
2013-08-22 11:41:00,76.7,70.4,29.88,NNE,15,1.0,4.0,81,0.00,,,0.75,942,Wunderground v.1.15,2013-08-22 16:41:00,
2013-08-22 11:46:00,77.2,70.5,29.88,NNE,13,1.0,6.0,80,0.00,,,0.75,729,Wunderground v.1.15,2013-08-22 16:46:00,
2013-08-22 11:51:00,77.8,71.1,29.88,NNE,17,7.0,7.0,80,0.00,,,0.75,355,Wunderground v.1.15,2013-08-22 16:51:00,
2013-08-22 11:56:00,77.4,70.7,29.88,NNE,17,3.0,7.0,80,0.00,,,0.75,424,Wunderground v.1.15,2013-08-22 16:56:00,
2013-08-22 12:01:00,77.0,69.6,29.88,NNE,29,2.0,6.0,78,0.00,,,0.75,320,Wunderground v.1.15,2013-08-22 17:01:00,
2013-08-22 12:06:00,76.8,69.8,29.88,NNE,30,5.0,7.0,79,0.00,,,0.75,348,Wunderground v.1.15,2013-08-22 17:06:00,
2013-08-22 12:11:00,76.7,70.1,29.88,NNE,32,4.0,7.0,80,0.00,,,0.75,346,Wunderground v.1.15,2013-08-22 17:11:00,
2013-08-22 12:16:00,76.6,70.0,29.88,NE,46,5.0,8.0,80,0.00,,,0.75,334,Wunderground v.1.15,2013-08-22 17:16:00,
2013-08-22 12:21:00,76.5,70.2,29.88,NE,46,5.0,6.0,81,0.00,,,0.75,325,Wunderground v.1.15,2013-08-22 17:21:00,
2013-08-22 12:26:00,76.4,70.5,29.88,NE,44,5.0,8.0,82,0.00,,,0.75,378,Wunderground v.1.15,2013-08-22 17:26:00,
2013-08-22 12:31:00,76.3,70.0,29.88,NE,55,3.0,9.0,81,0.00,,,0.75,406,Wunderground v.1.15,2013-08-22 17:31:00,
2013-08-22 12:36:00,76.4,70.1,29.88,NE,38,3.0,10.0,81,0.00,,,0.75,378,Wunderground v.1.15,2013-08-22 17:36:00,
2013-08-22 12:41:00,76.6,70.0,29.88,ENE,67,4.0,8.0,80,0.00,,,0.75,355,Wunderground v.1.15,2013-08-22 17:41:00,
2013-08-22 12:46:00,76.7,70.8,29.88,ENE,64,5.0,9.0,82,0.00,,,0.75,271,Wunderground v.1.15,2013-08-22 17:46:00,
2013-08-22 12:51:00,76.4,70.1,29.88,East,83,6.0,9.0,81,0.00,,,0.75,258,Wunderground v.1.15,2013-08-22 17:51:00,
2013-08-22 12:56:00,76.0,69.7,29.88,ENE,67,7.0,11.0,81,0.00,,,0.75,318,Wunderground v.1.15,2013-08-22 17:56:00,
2013-08-22 13:01:00,76.0,70.1,29.88,ENE,57,4.0,6.0,82,0.00,,,0.75,287,Wunderground v.1.15,2013-08-22 18:01:00,
2013-08-22 13:06:00,76.3,70.4,29.88,NE,53,4.0,8.0,82,0.00,,,0.75,243,Wunderground v.1.15,2013-08-22 18:06:00,
2013-08-22 13:11:00,76.1,69.8,29.88,ENE,59,9.0,11.0,81,0.00,,,0.75,234,Wunderground v.1.15,2013-08-22 18:11:00,
2013-08-22 13:17:00,76.0,69.7,29.88,NE,40,7.0,11.0,81,0.00,,,0.75,230,Wunderground v.1.15,2013-08-22 18:17:00,
2013-08-22 13:22:00,76.0,69.7,29.87,NE,53,4.0,7.0,81,0.00,,,0.75,288,Wunderground v.1.15,2013-08-22 18:22:00,
2013-08-22 13:27:00,76.2,70.3,29.87,ENE,70,8.0,10.0,82,0.00,,,0.75,478,Wunderground v.1.15,2013-08-22 18:27:00,
2013-08-22 13:32:00,76.6,70.3,29.87,NNE,32,3.0,8.0,81,0.00,,,0.75,473,Wunderground v.1.15,2013-08-22 18:32:00,
2013-08-22 13:37:00,76.8,69.8,29.87,ENE,61,7.0,12.0,79,0.00,,,0.75,399,Wunderground v.1.15,2013-08-22 18:37:00,
2013-08-22 13:42:00,76.8,69.8,29.87,NE,53,7.0,11.0,79,0.00,,,0.75,313,Wunderground v.1.15,2013-08-22 18:42:00,
2013-08-22 13:47:00,76.8,70.2,29.87,NE,46,6.0,11.0,80,0.00,,,0.75,487,Wunderground v.1.15,2013-08-22 18:47:00,
2013-08-22 13:52:00,77.3,71.0,29.87,NE,49,5.0,11.0,81,0.00,,,0.75,1202,Wunderground v.1.15,2013-08-22 18:52:00,
2013-08-22 13:57:00,77.4,69.6,29.87,NE,44,6.0,11.0,77,0.00,,,0.75,496,Wunderground v.1.15,2013-08-22 18:57:00,
2013-08-22 14:02:00,77.5,70.1,29.87,NE,54,9.0,16.0,78,0.00,,,0.75,397,Wunderground v.1.15,2013-08-22 19:02:00,
2013-08-22 14:07:00,77.2,70.2,29.87,NNE,30,6.0,16.0,79,0.00,,,0.75,469,Wunderground v.1.15,2013-08-22 19:07:00,
2013-08-22 14:12:00,77.4,70.4,29.87,NNE,24,7.0,9.0,79,0.00,,,0.75,1074,Wunderground v.1.15,2013-08-22 19:12:00,
2013-08-22 14:17:00,77.2,70.2,29.87,NE,42,6.0,12.0,79,0.00,,,0.75,441,Wunderground v.1.15,2013-08-22 19:17:00,
2013-08-22 14:22:00,77.0,70.0,29.87,NE,52,4.0,10.0,79,0.00,,,0.75,357,Wunderground v.1.15,2013-08-22 19:22:00,
2013-08-22 14:27:00,76.9,70.3,29.87,NE,55,7.0,12.0,80,0.00,,,0.75,360,Wunderground v.1.15,2013-08-22 19:27:00,
2013-08-22 14:32:00,77.0,70.4,29.87,NE,49,6.0,8.0,80,0.00,,,0.75,448,Wunderground v.1.15,2013-08-22 19:32:00,
2013-08-22 14:37:00,77.1,69.7,29.87,ENE,61,7.0,12.0,78,0.00,,,0.75,661,Wunderground v.1.15,2013-08-22 19:37:00,
2013-08-22 14:42:00,77.7,70.3,29.87,ENE,67,8.0,10.0,78,0.00,,,0.75,1072,Wunderground v.1.15,2013-08-22 19:42:00,
2013-08-22 14:47:00,78.7,71.3,29.87,NE,42,6.0,10.0,78,0.00,,,0.75,944,Wunderground v.1.15,2013-08-22 19:47:00,
2013-08-22 14:52:00,79.2,71.7,29.87,ENE,68,7.0,10.0,78,0.00,,,0.75,1039,Wunderground v.1.15,2013-08-22 19:52:00,
2013-08-22 14:57:00,79.6,71.4,29.86,NE,50,8.0,11.0,76,0.00,,,0.75,926,Wunderground v.1.15,2013-08-22 19:57:00,
2013-08-22 15:02:00,79.7,71.8,29.86,NE,34,6.0,7.0,77,0.00,,,0.75,937,Wunderground v.1.15,2013-08-22 20:02:00,
2013-08-22 15:07:00,79.9,71.3,29.86,East,92,9.0,15.0,75,0.00,,,0.75,904,Wunderground v.1.15,2013-08-22 20:07:00,
2013-08-22 15:12:00,79.8,71.9,29.86,ENE,61,5.0,8.0,77,0.00,,,0.75,907,Wunderground v.1.15,2013-08-22 20:12:00,
2013-08-22 15:17:00,79.6,71.0,29.86,NNE,26,6.0,11.0,75,0.00,,,0.75,856,Wunderground v.1.15,2013-08-22 20:17:00,
2013-08-22 15:22:00,79.5,70.9,29.86,NNE,28,5.0,9.0,75,0.00,,,0.75,745,Wunderground v.1.15,2013-08-22 20:22:00,
2013-08-22 15:27:00,79.2,70.6,29.86,ENE,73,4.0,13.0,75,0.00,,,0.75,765,Wunderground v.1.15,2013-08-22 20:27:00,
2013-08-22 15:32:00,79.3,71.1,29.85,East,82,8.0,14.0,76,0.00,,,0.75,793,Wunderground v.1.15,2013-08-22 20:32:00,
2013-08-22 15:37:00,79.2,71.0,29.86,East,83,8.0,16.0,76,0.00,,,0.75,803,Wunderground v.1.15,2013-08-22 20:37:00,
2013-08-22 15:43:00,79.4,70.8,29.86,East,90,6.0,11.0,75,0.00,,,0.75,731,Wunderground v.1.15,2013-08-22 20:43:00,
2013-08-22 15:48:00,79.4,70.8,29.85,ENE,57,8.0,14.0,75,0.00,,,0.75,756,Wunderground v.1.15,2013-08-22 20:48:00,
2013-08-22 15:53:00,79.6,70.6,29.85,East,87,7.0,11.0,74,0.00,,,0.75,773,Wunderground v.1.15,2013-08-22 20:53:00,
2013-08-22 15:58:00,79.8,70.8,29.85,East,83,7.0,11.0,74,0.00,,,0.75,714,Wunderground v.1.15,2013-08-22 20:58:00,
2013-08-22 16:03:00,79.7,70.7,29.85,East,94,10.0,10.0,74,0.00,,,0.75,438,Wunderground v.1.15,2013-08-22 21:03:00,
2013-08-22 16:08:00,79.7,70.7,29.85,ENE,69,10.0,14.0,74,0.00,,,0.75,782,Wunderground v.1.15,2013-08-22 21:08:00,
2013-08-22 16:13:00,79.7,70.7,29.85,East,79,8.0,14.0,74,0.00,,,0.75,220,Wunderground v.1.15,2013-08-22 21:13:00,
2013-08-22 16:18:00,79.5,70.5,29.85,NE,52,6.0,14.0,74,0.00,,,0.75,726,Wunderground v.1.15,2013-08-22 21:18:00,
2013-08-22 16:23:00,79.7,71.1,29.85,East,84,9.0,10.0,75,0.00,,,0.75,220,Wunderground v.1.15,2013-08-22 21:23:00,
2013-08-22 16:28:00,79.6,71.4,29.85,ENE,68,8.0,10.0,76,0.00,,,0.75,717,Wunderground v.1.15,2013-08-22 21:28:00,
2013-08-22 16:33:00,80.0,71.0,29.85,ENE,63,7.0,10.0,74,0.00,,,0.75,689,Wunderground v.1.15,2013-08-22 21:33:00,
2013-08-22 16:38:00,80.1,70.7,29.85,ENE,70,5.0,12.0,73,0.00,,,0.75,729,Wunderground v.1.15,2013-08-22 21:38:00,
2013-08-22 16:43:00,80.0,71.4,29.85,East,82,7.0,11.0,75,0.00,,,0.75,248,Wunderground v.1.15,2013-08-22 21:43:00,
2013-08-22 16:48:00,79.2,71.4,29.84,ENE,76,5.0,13.0,77,0.00,,,0.75,329,Wunderground v.1.15,2013-08-22 21:48:00,
2013-08-22 16:53:00,79.0,71.2,29.84,ENE,64,5.0,10.0,77,0.00,,,0.75,294,Wunderground v.1.15,2013-08-22 21:53:00,
2013-08-22 16:58:00,78.8,71.4,29.84,East,87,7.0,10.0,78,0.00,,,0.75,241,Wunderground v.1.15,2013-08-22 21:58:00,
2013-08-22 17:03:00,78.7,71.6,29.84,East,90,5.0,7.0,79,0.00,,,0.75,603,Wunderground v.1.15,2013-08-22 22:03:00,
2013-08-22 17:08:00,79.1,70.9,29.84,ESE,108,9.0,13.0,76,0.00,,,0.75,561,Wunderground v.1.15,2013-08-22 22:08:00,
2013-08-22 17:13:00,79.6,72.1,29.84,East,98,7.0,13.0,78,0.00,,,0.75,673,Wunderground v.1.15,2013-08-22 22:13:00,
2013-08-22 17:18:00,79.7,71.8,29.84,ESE,117,10.0,13.0,77,0.00,,,0.75,589,Wunderground v.1.15,2013-08-22 22:18:00,
2013-08-22 17:23:00,79.2,71.7,29.84,ESE,105,11.0,13.0,78,0.00,,,0.75,220,Wunderground v.1.15,2013-08-22 22:23:00,
2013-08-22 17:28:00,78.7,71.3,29.84,East,88,6.0,13.0,78,0.00,,,0.75,216,Wunderground v.1.15,2013-08-22 22:28:00,
2013-08-22 17:33:00,78.6,70.8,29.84,East,101,8.0,10.0,77,0.00,,,0.75,526,Wunderground v.1.15,2013-08-22 22:33:00,
2013-08-22 17:38:00,79.1,71.6,29.84,ENE,73,5.0,10.0,78,0.00,,,0.75,522,Wunderground v.1.15,2013-08-22 22:38:00,
2013-08-22 17:43:00,79.5,72.0,29.84,ENE,69,7.0,10.0,78,0.00,,,0.75,186,Wunderground v.1.15,2013-08-22 22:43:00,
2013-08-22 17:48:00,79.0,71.2,29.84,East,82,7.0,13.0,77,0.00,,,0.75,148,Wunderground v.1.15,2013-08-22 22:48:00,
2013-08-22 17:53:00,78.3,71.2,29.84,East,84,5.0,10.0,79,0.00,,,0.75,118,Wunderground v.1.15,2013-08-22 22:53:00,
2013-08-22 17:58:00,77.9,71.2,29.84,East,83,3.0,10.0,80,0.00,,,0.75,127,Wunderground v.1.15,2013-08-22 22:58:00,
2013-08-22 18:03:00,77.8,71.5,29.84,East,85,6.0,9.0,81,0.00,,,0.75,139,Wunderground v.1.15,2013-08-22 23:03:00,
2013-08-22 18:08:00,77.5,71.2,29.84,ESE,103,8.0,9.0,81,0.00,,,0.75,142,Wunderground v.1.15,2013-08-22 23:08:00,
2013-08-22 18:13:00,77.3,71.0,29.84,East,98,6.0,9.0,81,0.00,,,0.75,135,Wunderground v.1.15,2013-08-22 23:13:00,
2013-08-22 18:18:00,77.2,70.9,29.84,East,100,7.0,10.0,81,0.00,,,0.75,142,Wunderground v.1.15,2013-08-22 23:18:00,
2013-08-22 18:23:00,77.0,71.1,29.84,East,101,6.0,7.0,82,0.00,,,0.75,144,Wunderground v.1.15,2013-08-22 23:23:00,
2013-08-22 18:28:00,77.0,71.1,29.84,ESE,107,5.0,7.0,82,0.00,,,0.75,172,Wunderground v.1.15,2013-08-22 23:28:00,
2013-08-22 18:33:00,77.3,71.7,29.84,ESE,104,5.0,8.0,83,0.00,,,0.75,155,Wunderground v.1.15,2013-08-22 23:33:00,
2013-08-22 18:38:00,77.2,71.3,29.84,ESE,111,4.0,8.0,82,0.00,,,0.75,151,Wunderground v.1.15,2013-08-22 23:38:00,
2013-08-22 18:43:00,77.1,71.2,29.85,ESE,116,3.0,7.0,82,0.00,,,0.75,149,Wunderground v.1.15,2013-08-22 23:43:00,
2013-08-22 18:48:00,77.0,71.1,29.85,ESE,112,2.0,7.0,82,0.00,,,0.75,163,Wunderground v.1.15,2013-08-22 23:48:00,
2013-08-22 18:53:00,77.2,71.3,29.84,ESE,109,4.0,7.0,82,0.00,,,0.75,202,Wunderground v.1.15,2013-08-22 23:53:00,
2013-08-22 18:58:00,77.4,71.5,29.84,ESE,105,7.0,7.0,82,0.00,,,0.75,199,Wunderground v.1.15,2013-08-22 23:58:00,
2013-08-22 19:03:00,77.3,71.0,29.84,East,99,7.0,8.0,81,0.00,,,0.75,193,Wunderground v.1.15,2013-08-23 00:03:00,
2013-08-22 19:08:00,77.2,70.9,29.84,East,94,6.0,11.0,81,0.00,,,0.75,118,Wunderground v.1.15,2013-08-23 00:08:00,
2013-08-22 19:13:00,77.1,71.2,29.84,East,94,6.0,6.0,82,0.00,,,0.75,84,Wunderground v.1.15,2013-08-23 00:13:00,
2013-08-22 19:18:00,77.0,71.4,29.84,East,94,3.0,8.0,83,0.00,,,0.75,77,Wunderground v.1.15,2013-08-23 00:18:00,
2013-08-22 19:23:00,76.9,71.3,29.84,East,92,5.0,7.0,83,0.00,,,0.75,69,Wunderground v.1.15,2013-08-23 00:23:00,
2013-08-22 19:28:00,76.7,71.1,29.84,East,90,7.0,7.0,83,0.00,,,0.75,56,Wunderground v.1.15,2013-08-23 00:28:00,
2013-08-22 19:33:00,76.5,70.9,29.84,East,79,2.0,9.0,83,0.00,,,0.75,42,Wunderground v.1.15,2013-08-23 00:33:00,
2013-08-22 19:38:00,76.2,70.7,29.84,East,80,3.0,9.0,83,0.00,,,0.75,35,Wunderground v.1.15,2013-08-23 00:38:00,
2013-08-22 19:43:00,76.0,70.5,29.84,East,80,5.0,7.0,83,0.00,,,0.75,35,Wunderground v.1.15,2013-08-23 00:43:00,
2013-08-22 19:48:00,75.7,70.2,29.84,East,80,3.0,7.0,83,0.00,,,0.75,30,Wunderground v.1.15,2013-08-23 00:48:00,
2013-08-22 19:53:00,75.1,69.9,29.84,East,80,5.0,6.0,84,0.00,,,0.75,28,Wunderground v.1.15,2013-08-23 00:53:00,
2013-08-22 19:58:00,74.7,69.9,29.84,East,80,3.0,6.0,85,0.00,,,0.75,26,Wunderground v.1.15,2013-08-23 00:58:00,
2013-08-22 20:03:00,74.4,69.6,29.85,East,80,2.0,4.0,85,0.00,,,0.75,21,Wunderground v.1.15,2013-08-23 01:03:00,
2013-08-22 20:08:00,74.3,69.5,29.85,East,80,3.0,5.0,85,0.00,,,0.75,14,Wunderground v.1.15,2013-08-23 01:08:00,
2013-08-22 20:13:00,74.1,69.6,29.85,East,80,2.0,3.0,86,0.00,,,0.75,7,Wunderground v.1.15,2013-08-23 01:13:00,
2013-08-22 20:18:00,74.0,69.5,29.85,East,80,5.0,5.0,86,0.00,,,0.75,0,Wunderground v.1.15,2013-08-23 01:18:00,
2013-08-22 20:23:00,73.8,69.3,29.84,East,80,2.0,3.0,86,0.00,,,0.75,0,Wunderground v.1.15,2013-08-23 01:23:00,
2013-08-22 20:28:00,73.6,69.2,29.84,East,80,2.0,5.0,86,0.00,,,0.75,0,Wunderground v.1.15,2013-08-23 01:28:00,
2013-08-22 20:33:00,73.7,69.2,29.85,East,80,5.0,6.0,86,0.00,,,0.75,0,Wunderground v.1.15,2013-08-23 01:33:00,
2013-08-22 20:38:00,73.4,69.0,29.85,East,80,3.0,6.0,86,0.00,,,0.75,0,Wunderground v.1.15,2013-08-23 01:38:00,
2013-08-22 20:43:00,72.8,68.4,29.84,East,80,3.0,6.0,86,0.00,,,0.75,0,Wunderground v.1.15,2013-08-23 01:43:00,
2013-08-22 20:48:00,72.3,68.2,29.84,East,80,2.0,6.0,87,0.00,,,0.75,0,Wunderground v.1.15,2013-08-23 01:48:00,
2013-08-22 20:54:00,72.2,68.1,29.84,East,80,2.0,6.0,87,0.00,,,0.75,0,Wunderground v.1.15,2013-08-23 01:54:00,
2013-08-22 20:59:00,72.1,68.3,29.85,East,80,2.0,6.0,88,0.00,,,0.75,0,Wunderground v.1.15,2013-08-23 01:59:00,
2013-08-22 21:04:00,72.1,68.3,29.85,East,80,5.0,6.0,88,0.00,,,0.75,0,Wunderground v.1.15,2013-08-23 02:04:00,
2013-08-22 21:09:00,72.2,68.4,29.85,East,80,5.0,7.0,88,0.00,,,0.75,0,Wunderground v.1.15,2013-08-23 02:09:00,
2013-08-22 21:14:00,72.4,68.6,29.85,East,80,3.0,6.0,88,0.00,,,0.75,0,Wunderground v.1.15,2013-08-23 02:14:00,
2013-08-22 21:19:00,72.4,68.6,29.86,East,80,2.0,6.0,88,0.00,,,0.75,0,Wunderground v.1.15,2013-08-23 02:19:00,
2013-08-22 21:24:00,72.2,68.4,29.86,East,80,1.0,2.0,88,0.00,,,0.75,0,Wunderground v.1.15,2013-08-23 02:24:00,
2013-08-22 21:29:00,72.0,68.2,29.86,East,80,2.0,3.0,88,0.00,,,0.75,0,Wunderground v.1.15,2013-08-23 02:29:00,
2013-08-22 21:34:00,72.0,68.2,29.86,East,80,2.0,5.0,88,0.00,,,0.75,0,Wunderground v.1.15,2013-08-23 02:34:00,
2013-08-22 21:39:00,72.0,68.2,29.87,East,80,3.0,5.0,88,0.00,,,0.75,0,Wunderground v.1.15,2013-08-23 02:39:00,
2013-08-22 21:44:00,72.0,68.6,29.87,East,80,2.0,5.0,89,0.00,,,0.75,0,Wunderground v.1.15,2013-08-23 02:44:00,
2013-08-22 21:49:00,72.0,68.6,29.86,East,80,2.0,5.0,89,0.00,,,0.75,0,Wunderground v.1.15,2013-08-23 02:49:00,
2013-08-22 21:54:00,72.0,68.6,29.87,East,80,3.0,5.0,89,0.00,,,0.75,0,Wunderground v.1.15,2013-08-23 02:54:00,
2013-08-22 21:59:00,71.8,68.4,29.87,East,80,2.0,5.0,89,0.00,,,0.75,0,Wunderground v.1.15,2013-08-23 02:59:00,
2013-08-22 22:04:00,71.7,68.3,29.87,East,80,5.0,7.0,89,0.00,,,0.75,0,Wunderground v.1.15,2013-08-23 03:04:00,
2013-08-22 22:09:00,71.5,68.1,29.87,East,80,2.0,7.0,89,0.00,,,0.75,0,Wunderground v.1.15,2013-08-23 03:09:00,
2013-08-22 22:14:00,71.2,67.8,29.87,East,80,3.0,5.0,89,0.00,,,0.75,0,Wunderground v.1.15,2013-08-23 03:14:00,
2013-08-22 22:19:00,71.0,67.6,29.87,East,80,2.0,5.0,89,0.00,,,0.75,0,Wunderground v.1.15,2013-08-23 03:19:00,
2013-08-22 22:24:00,70.9,67.5,29.87,East,80,5.0,6.0,89,0.00,,,0.75,0,Wunderground v.1.15,2013-08-23 03:24:00,
2013-08-22 22:29:00,70.7,67.3,29.87,East,80,3.0,6.0,89,0.00,,,0.75,0,Wunderground v.1.15,2013-08-23 03:29:00,
2013-08-22 22:34:00,70.7,67.3,29.87,East,80,2.0,5.0,89,0.00,,,0.75,0,Wunderground v.1.15,2013-08-23 03:34:00,
2013-08-22 22:39:00,70.5,67.1,29.87,East,80,2.0,5.0,89,0.00,,,0.75,0,Wunderground v.1.15,2013-08-23 03:39:00,
2013-08-22 22:44:00,70.3,66.9,29.87,East,80,6.0,6.0,89,0.00,,,0.75,0,Wunderground v.1.15,2013-08-23 03:44:00,
2013-08-22 22:49:00,70.2,66.8,29.87,East,80,3.0,6.0,89,0.00,,,0.75,0,Wunderground v.1.15,2013-08-23 03:49:00,
2013-08-22 22:54:00,70.1,66.7,29.87,East,80,5.0,7.0,89,0.00,,,0.75,0,Wunderground v.1.15,2013-08-23 03:54:00,
2013-08-22 22:59:00,70.1,66.7,29.87,East,80,6.0,7.0,89,0.00,,,0.75,0,Wunderground v.1.15,2013-08-23 03:59:00,
2013-08-22 23:01:00,70.1,66.7,29.87,East,80,5.0,6.0,89,0.00,,,0.75,0,Wunderground v.1.15,2013-08-23 04:01:00,
2013-08-22 23:06:00,70.4,67.3,29.87,East,80,5.0,7.0,90,0.00,,,0.75,0,Wunderground v.1.15,2013-08-23 04:06:00,
2013-08-22 23:11:00,70.2,66.8,29.87,East,80,5.0,7.0,89,0.00,,,0.75,0,Wunderground v.1.15,2013-08-23 04:11:00,
2013-08-22 23:16:00,70.1,66.7,29.87,East,82,5.0,7.0,89,0.00,,,0.75,0,Wunderground v.1.15,2013-08-23 04:16:00,
2013-08-22 23:21:00,70.1,66.7,29.87,East,82,6.0,6.0,89,0.00,,,0.75,0,Wunderground v.1.15,2013-08-23 04:21:00,
2013-08-22 23:26:00,70.2,66.8,29.87,East,82,5.0,7.0,89,0.00,,,0.75,0,Wunderground v.1.15,2013-08-23 04:26:00,
2013-08-22 23:32:00,70.3,66.9,29.87,East,82,3.0,6.0,89,0.00,,,0.75,0,Wunderground v.1.15,2013-08-23 04:32:00,
2013-08-22 23:37:00,70.0,66.6,29.87,East,82,2.0,6.0,89,0.00,,,0.75,0,Wunderground v.1.15,2013-08-23 04:37:00,
2013-08-22 23:42:00,69.9,66.8,29.87,East,82,3.0,5.0,90,0.00,,,0.75,0,Wunderground v.1.15,2013-08-23 04:42:00,
2013-08-22 23:47:00,70.1,67.0,29.87,East,82,2.0,5.0,90,0.00,,,0.75,0,Wunderground v.1.15,2013-08-23 04:47:00,
2013-08-22 23:52:00,70.2,66.8,29.88,East,82,5.0,5.0,89,0.00,,,0.75,0,Wunderground v.1.15,2013-08-23 04:52:00,
2013-08-22 23:57:00,70.1,66.7,29.87,East,82,3.0,6.0,89,0.00,,,0.75,0,Wunderground v.1.15,2013-08-23 04:57:00,